createdAt,value
2018-10-07T00:01:32.985Z,20.03
2018-10-07T00:04:03.106Z,28.67
2018-10-07T00:06:32.052Z,20.20
2018-10-07T00:09:01.960Z,32.50
2018-10-07T00:11:31.623Z,24.13
2018-10-07T00:14:01.415Z,26.03
2018-10-07T00:16:31.740Z,22.13
2018-10-07T00:19:01.524Z,21.33
2018-10-07T00:21:30.940Z,23.10
2018-10-07T00:24:01.167Z,25.17
2018-10-07T00:26:30.534Z,20.63
2018-10-07T00:29:01.404Z,25.50
2018-10-07T00:31:31.682Z,29.00
2018-10-07T00:34:03.107Z,21.83
2018-10-07T00:36:33.391Z,24.13
2018-10-07T00:39:03.761Z,27.57
2018-10-07T00:41:34.335Z,22.10
2018-10-07T00:44:03.973Z,28.10
2018-10-07T00:46:35.463Z,22.40
2018-10-07T00:49:05.863Z,30.30
2018-10-07T00:51:36.496Z,21.50
2018-10-07T00:54:05.583Z,25.67
2018-10-07T00:56:34.619Z,25.43
2018-10-07T00:59:04.191Z,34.93
2018-10-07T01:01:33.590Z,22.27
2018-10-07T01:04:03.910Z,25.63
2018-10-07T01:06:33.013Z,38.93
2018-10-07T01:09:02.367Z,19.60
2018-10-07T01:11:32.402Z,25.43
2018-10-07T01:14:01.437Z,26.27
2018-10-07T01:16:30.616Z,23.03
2018-10-07T01:18:59.713Z,23.57
2018-10-07T01:21:28.757Z,26.83
2018-10-07T01:23:59.716Z,23.00
2018-10-07T01:26:29.665Z,26.30
2018-10-07T01:28:59.166Z,25.13
2018-10-07T01:31:29.965Z,29.47
2018-10-07T01:34:00.159Z,26.10
2018-10-07T01:36:29.213Z,26.20
2018-10-07T01:38:58.792Z,26.80
2018-10-07T01:41:28.338Z,25.53
2018-10-07T01:43:58.499Z,23.10
2018-10-07T01:46:28.082Z,29.30
2018-10-07T01:48:57.118Z,25.60
2018-10-07T01:51:26.416Z,27.57
2018-10-07T01:53:56.669Z,24.83
2018-10-07T01:56:27.208Z,26.00
2018-10-07T01:58:56.173Z,24.77
2018-10-07T02:01:26.564Z,31.80
2018-10-07T02:03:55.483Z,22.10
2018-10-07T02:06:26.282Z,19.93
2018-10-07T02:08:55.607Z,25.13
2018-10-07T02:11:24.841Z,24.37
2018-10-07T02:13:55.072Z,23.77
2018-10-07T02:16:24.478Z,25.23
2018-10-07T02:18:54.275Z,22.30
2018-10-07T02:21:24.548Z,28.53
2018-10-07T02:23:53.411Z,26.77
2018-10-07T02:26:24.124Z,27.40
2018-10-07T02:28:53.843Z,26.17
2018-10-07T02:31:23.790Z,21.17
2018-10-07T02:33:53.657Z,24.20
2018-10-07T02:36:22.371Z,30.20
2018-10-07T02:38:51.136Z,31.23
2018-10-07T02:41:19.977Z,20.80
2018-10-07T02:43:49.401Z,22.80
2018-10-07T02:46:18.217Z,27.80
2018-10-07T02:48:46.991Z,21.13
2018-10-07T02:51:16.031Z,22.00
2018-10-07T02:53:45.180Z,22.60
2018-10-07T02:56:14.363Z,26.53
2018-10-07T02:58:43.270Z,24.87
2018-10-07T03:01:12.360Z,28.77
2018-10-07T03:03:41.993Z,25.30
2018-10-07T03:06:12.064Z,21.93
2018-10-07T03:08:41.463Z,30.33
2018-10-07T03:11:11.318Z,21.20
2018-10-07T03:13:42.133Z,22.07
2018-10-07T03:16:12.483Z,25.67
2018-10-07T03:18:42.710Z,26.10
2018-10-07T03:21:12.209Z,22.80
2018-10-07T03:23:41.840Z,24.87
2018-10-07T03:26:11.412Z,24.47
2018-10-07T03:28:41.446Z,25.10
2018-10-07T03:31:11.585Z,29.87
2018-10-07T03:33:41.327Z,20.60
2018-10-07T03:36:10.933Z,22.47
2018-10-07T03:38:41.030Z,26.27
2018-10-07T03:41:10.254Z,26.20
2018-10-07T03:43:40.633Z,22.10
2018-10-07T03:46:09.532Z,23.37
2018-10-07T03:48:39.323Z,24.73
2018-10-07T03:51:08.941Z,23.57
2018-10-07T03:53:38.356Z,25.80
2018-10-07T03:56:08.602Z,22.90
2018-10-07T03:58:37.754Z,29.27
2018-10-07T04:01:08.608Z,20.33
2018-10-07T04:03:38.192Z,24.97
2018-10-07T04:06:07.303Z,30.00
2018-10-07T04:08:38.113Z,25.80
2018-10-07T04:11:07.743Z,18.90
2018-10-07T04:13:37.469Z,23.40
2018-10-07T04:16:07.358Z,20.53
2018-10-07T04:18:36.627Z,24.87
2018-10-07T04:21:06.480Z,19.40
2018-10-07T04:23:37.149Z,21.83
2018-10-07T04:26:06.883Z,20.20
2018-10-07T04:28:36.696Z,21.13
2018-10-07T04:31:07.720Z,29.47
2018-10-07T04:33:38.964Z,25.93
2018-10-07T04:36:08.156Z,21.40
2018-10-07T04:38:37.350Z,23.47
2018-10-07T04:41:06.739Z,27.50
2018-10-07T04:43:37.108Z,25.33
2018-10-07T04:46:07.063Z,24.73
2018-10-07T04:48:37.131Z,25.30
2018-10-07T04:51:07.369Z,25.43
2018-10-07T04:53:36.945Z,23.50
2018-10-07T04:56:06.506Z,25.90
2018-10-07T04:58:35.485Z,22.70
2018-10-07T05:01:06.142Z,27.43
2018-10-07T05:03:35.727Z,35.20
2018-10-07T05:06:05.051Z,22.63
2018-10-07T05:08:35.030Z,26.00
2018-10-07T05:11:05.268Z,29.10
2018-10-07T05:13:40.902Z,29.63
2018-10-07T05:16:12.118Z,26.87
2018-10-07T05:18:42.136Z,30.20
2018-10-07T05:21:11.377Z,34.90
2018-10-07T05:23:41.997Z,25.60
2018-10-07T05:26:12.175Z,28.17
2018-10-07T05:28:41.232Z,31.83
2018-10-07T05:31:10.825Z,28.03
2018-10-07T05:33:41.094Z,31.27
2018-10-07T05:36:10.115Z,41.37
2018-10-07T05:38:40.183Z,34.40
2018-10-07T05:41:09.235Z,38.33
2018-10-07T05:43:38.079Z,36.93
2018-10-07T05:46:08.228Z,40.53
2018-10-07T05:48:39.874Z,36.47
2018-10-07T05:51:09.584Z,35.30
2018-10-07T05:53:40.371Z,43.23
2018-10-07T05:56:09.874Z,44.67
2018-10-07T05:58:40.139Z,35.93
2018-10-07T06:01:12.984Z,38.07
2018-10-07T06:03:53.338Z,40.03
2018-10-07T06:06:22.531Z,37.33
2018-10-07T06:08:51.682Z,46.97
2018-10-07T06:11:20.927Z,40.93
2018-10-07T06:13:50.032Z,45.83
2018-10-07T06:16:20.006Z,40.97
2018-10-07T06:18:49.708Z,38.13
2018-10-07T06:21:19.216Z,42.03
2018-10-07T06:23:49.687Z,48.30
2018-10-07T06:26:20.478Z,55.17
2018-10-07T06:28:49.954Z,56.30
2018-10-07T06:31:18.991Z,53.57
2018-10-07T06:33:49.045Z,45.67
2018-10-07T06:36:18.451Z,48.77
2018-10-07T06:38:47.573Z,50.93
2018-10-07T06:41:17.056Z,49.90
2018-10-07T06:43:46.629Z,46.83
2018-10-07T06:46:16.457Z,54.10
2018-10-07T06:48:46.316Z,50.03
2018-10-07T06:51:15.341Z,54.23
2018-10-07T06:53:45.005Z,47.73
2018-10-07T06:56:14.235Z,53.03
2018-10-07T06:58:43.279Z,42.23
2018-10-07T07:01:12.381Z,41.57
2018-10-07T07:03:42.417Z,41.50
2018-10-07T07:06:12.055Z,40.20
2018-10-07T07:08:41.369Z,34.37
2018-10-07T07:11:10.539Z,31.77
2018-10-07T07:13:39.596Z,29.90
2018-10-07T07:16:08.422Z,30.20
2018-10-07T07:18:37.211Z,29.90
2018-10-07T07:21:06.199Z,27.67
2018-10-07T07:23:35.100Z,21.67
2018-10-07T07:26:03.960Z,33.43
2018-10-07T07:28:33.103Z,18.83
2018-10-07T07:31:03.060Z,19.43
2018-10-07T07:33:32.071Z,30.47
2018-10-07T07:36:02.003Z,24.13
2018-10-07T07:38:30.890Z,17.53
2018-10-07T07:40:59.723Z,21.33
2018-10-07T07:43:28.724Z,21.57
2018-10-07T07:46:02.439Z,22.47
2018-10-07T07:48:31.473Z,23.07
2018-10-07T07:51:00.512Z,21.97
2018-10-07T07:53:29.302Z,23.00
2018-10-07T07:55:58.476Z,20.20
2018-10-07T07:58:27.224Z,21.23
2018-10-07T08:00:56.110Z,20.43
2018-10-07T08:03:24.873Z,27.63
2018-10-07T08:05:54.097Z,24.57
2018-10-07T08:08:22.925Z,22.80
2018-10-07T08:10:51.905Z,21.80
2018-10-07T08:13:20.895Z,26.47
2018-10-07T08:15:49.700Z,20.90
2018-10-07T08:18:18.485Z,21.50
2018-10-07T08:20:47.761Z,22.67
2018-10-07T08:23:17.141Z,18.17
2018-10-07T08:25:49.108Z,20.70
2018-10-07T08:28:18.108Z,18.30
2018-10-07T08:30:47.002Z,21.20
2018-10-07T08:33:15.852Z,15.20
2018-10-07T08:35:44.918Z,17.10
2018-10-07T08:38:13.768Z,16.63
2018-10-07T08:40:42.628Z,13.10
2018-10-07T08:43:11.549Z,12.63
2018-10-07T08:45:40.307Z,14.20
2018-10-07T08:48:09.405Z,11.10
2018-10-07T08:50:38.226Z,11.50
2018-10-07T08:53:07.312Z,15.33
2018-10-07T08:55:36.415Z,13.33
2018-10-07T08:58:05.402Z,12.63
2018-10-07T09:00:34.197Z,11.13
2018-10-07T09:03:03.042Z,10.70
2018-10-07T09:05:31.965Z,9.10
2018-10-07T09:08:00.745Z,10.57
2018-10-07T09:13:12.734Z,9.30
2018-10-07T09:15:50.990Z,10.90
2018-10-07T09:18:28.325Z,9.50
2018-10-07T09:21:01.790Z,11.40
2018-10-07T09:23:33.370Z,12.07
2018-10-07T09:26:16.568Z,15.47
2018-10-07T09:28:48.419Z,11.33
2018-10-07T09:31:22.359Z,11.43
2018-10-07T09:33:52.474Z,9.23
2018-10-07T09:36:22.119Z,11.50
2018-10-07T09:38:51.153Z,8.87
2018-10-07T09:41:20.424Z,9.63
2018-10-07T09:43:49.330Z,10.43
2018-10-07T09:46:18.495Z,9.10
2018-10-07T09:48:47.339Z,9.23
2018-10-07T09:51:16.158Z,8.93
2018-10-07T09:53:45.190Z,11.83
2018-10-07T09:56:14.807Z,11.10
2018-10-07T09:58:44.648Z,10.03
2018-10-07T10:01:13.663Z,9.17
2018-10-07T10:03:42.868Z,10.20
2018-10-07T10:06:12.401Z,11.47
2018-10-07T10:08:41.205Z,9.73
2018-10-07T10:11:12.328Z,13.50
2018-10-07T10:13:41.850Z,11.57
2018-10-07T10:16:10.668Z,9.70
2018-10-07T10:18:47.097Z,10.37
2018-10-07T10:21:27.668Z,8.53
2018-10-07T10:26:10.866Z,13.60
2018-10-07T10:28:56.732Z,14.50
2018-10-07T10:32:39.800Z,10.10
2018-10-07T10:35:35.070Z,13.87
2018-10-07T10:40:11.862Z,10.93
2018-10-07T10:42:45.567Z,10.17
2018-10-07T10:45:26.446Z,12.67
2018-10-07T10:47:59.537Z,12.20
2018-10-07T10:51:38.201Z,20.37
2018-10-07T10:54:18.543Z,9.83
2018-10-07T10:56:59.585Z,10.93
2018-10-07T10:59:54.992Z,9.77
2018-10-07T11:02:32.024Z,13.33
2018-10-07T11:07:17.365Z,8.80
2018-10-07T11:10:54.920Z,14.43
2018-10-07T11:13:30.355Z,9.77
2018-10-07T11:16:20.634Z,8.93
2018-10-07T11:19:01.771Z,8.70
2018-10-07T11:21:43.100Z,9.90
2018-10-07T11:24:17.088Z,9.43
2018-10-07T11:26:55.733Z,10.30
2018-10-07T11:29:32.995Z,11.67
2018-10-07T11:32:08.985Z,8.60
2018-10-07T11:35:46.138Z,9.60
2018-10-07T11:38:20.321Z,12.40
2018-10-07T11:41:29.511Z,15.23
2018-10-07T11:44:04.605Z,8.90
2018-10-07T11:47:08.967Z,9.57
2018-10-07T11:49:43.170Z,10.40
2018-10-07T11:52:23.246Z,12.77
2018-10-07T11:54:54.918Z,10.60
2018-10-07T11:57:24.138Z,9.70
2018-10-07T11:59:54.003Z,10.53
2018-10-07T12:02:23.471Z,9.30
2018-10-07T12:04:52.906Z,9.47
2018-10-07T12:07:24.607Z,10.23
2018-10-07T12:09:53.962Z,10.67
2018-10-07T12:12:23.108Z,13.23
2018-10-07T12:14:52.195Z,14.83
2018-10-07T12:17:21.040Z,9.17
2018-10-07T12:19:51.687Z,10.57
2018-10-07T12:22:20.564Z,11.03
2018-10-07T12:24:49.455Z,10.57
2018-10-07T12:27:18.256Z,9.23
2018-10-07T12:29:47.165Z,9.40
2018-10-07T12:32:16.566Z,9.80
2018-10-07T12:34:45.657Z,9.83
2018-10-07T12:37:14.524Z,10.43
2018-10-07T12:39:43.316Z,10.93
2018-10-07T12:42:12.531Z,9.47
2018-10-07T12:44:41.634Z,9.13
2018-10-07T12:47:10.495Z,9.53
2018-10-07T12:49:39.589Z,13.93
2018-10-07T12:52:08.732Z,9.57
2018-10-07T12:54:37.851Z,12.97
2018-10-07T12:57:06.982Z,10.57
2018-10-07T12:59:35.847Z,9.40
2018-10-07T13:02:05.970Z,12.83
2018-10-07T13:04:35.505Z,9.30
2018-10-07T13:07:06.669Z,8.53
2018-10-07T13:09:35.484Z,9.90
2018-10-07T13:12:05.623Z,14.13
2018-10-07T13:14:34.762Z,11.40
2018-10-07T13:17:05.445Z,8.60
2018-10-07T13:19:34.925Z,12.07
2018-10-07T13:22:04.735Z,10.90
2018-10-07T13:24:33.837Z,9.17
2018-10-07T13:27:03.500Z,10.97
2018-10-07T13:29:33.356Z,12.23
2018-10-07T13:32:02.732Z,9.07
2018-10-07T13:34:32.844Z,8.73
2018-10-07T13:37:02.713Z,9.20
2018-10-07T13:39:32.972Z,10.40
2018-10-07T13:42:02.579Z,10.43
2018-10-07T13:44:32.235Z,9.90
2018-10-07T13:47:01.084Z,9.43
2018-10-07T13:49:30.281Z,11.40
2018-10-07T13:51:59.038Z,11.00
2018-10-07T13:54:28.162Z,9.47
2018-10-07T13:56:56.991Z,8.90
2018-10-07T13:59:25.804Z,9.40
2018-10-07T14:01:54.602Z,9.47
2018-10-07T14:04:23.558Z,10.17
2018-10-07T14:06:52.323Z,16.70
2018-10-07T14:09:21.296Z,9.80
2018-10-07T14:11:50.773Z,9.40
2018-10-07T14:14:19.611Z,11.00
2018-10-07T14:16:48.606Z,8.47
2018-10-07T14:19:18.080Z,10.53
2018-10-07T14:21:47.054Z,11.50
2018-10-07T14:24:15.881Z,11.57
2018-10-07T14:26:44.963Z,12.07
2018-10-07T14:29:13.702Z,9.20
2018-10-07T14:31:42.732Z,10.10
2018-10-07T14:34:12.439Z,9.57
2018-10-07T14:36:41.186Z,9.30
2018-10-07T14:39:13.000Z,11.70
2018-10-07T14:41:42.034Z,9.23
2018-10-07T14:44:10.855Z,9.00
2018-10-07T14:46:39.622Z,9.57
2018-10-07T14:49:09.577Z,8.50
2018-10-07T14:51:40.293Z,8.77
2018-10-07T14:54:10.365Z,9.37
2018-10-07T14:56:40.340Z,12.93
2018-10-07T14:59:09.790Z,11.23
2018-10-07T15:01:38.781Z,8.73
2018-10-07T15:04:08.037Z,9.63
2018-10-07T15:06:36.973Z,9.50
2018-10-07T15:09:08.906Z,10.20
2018-10-07T15:11:38.022Z,9.10
2018-10-07T15:14:08.545Z,15.87
2018-10-07T15:16:38.689Z,10.90
2018-10-07T15:19:09.325Z,9.80
2018-10-07T15:21:39.591Z,10.00
2018-10-07T15:24:08.496Z,9.70
2018-10-07T15:26:37.332Z,9.57
2018-10-07T15:29:06.202Z,9.40
2018-10-07T15:31:35.504Z,10.43
2018-10-07T15:34:04.228Z,10.30
2018-10-07T15:36:33.015Z,10.40
2018-10-07T15:39:01.915Z,10.63
2018-10-07T15:41:30.806Z,9.50
2018-10-07T15:44:00.444Z,9.43
2018-10-07T15:46:29.602Z,22.83
2018-10-07T15:49:01.636Z,8.80
2018-10-07T15:51:30.431Z,13.13
2018-10-07T15:53:59.862Z,11.53
2018-10-07T15:56:28.650Z,10.37
2018-10-07T15:58:57.401Z,17.07
2018-10-07T16:01:26.706Z,11.00
2018-10-07T16:03:56.611Z,12.23
2018-10-07T16:06:26.179Z,9.53
2018-10-07T16:09:00.644Z,10.80
2018-10-07T16:11:29.911Z,10.40
2018-10-07T16:14:00.017Z,13.17
2018-10-07T16:16:29.120Z,11.93
2018-10-07T16:18:57.968Z,11.23
2018-10-07T16:21:26.710Z,13.40
2018-10-07T16:23:55.646Z,9.20
2018-10-07T16:26:24.594Z,11.33
2018-10-07T16:28:53.302Z,21.00
2018-10-07T16:31:23.012Z,12.90
2018-10-07T16:33:52.585Z,11.23
2018-10-07T16:36:22.162Z,11.50
2018-10-07T16:38:51.449Z,10.30
2018-10-07T16:41:21.118Z,11.00
2018-10-07T16:43:51.878Z,11.00
2018-10-07T16:46:22.017Z,10.30
2018-10-07T16:48:51.016Z,9.63
2018-10-07T16:51:19.812Z,30.03
2018-10-07T16:53:48.574Z,20.43
2018-10-07T16:56:19.687Z,10.40
2018-10-07T16:58:48.823Z,11.23
2018-10-07T17:01:17.780Z,10.50
2018-10-07T17:03:46.724Z,10.40
2018-10-07T17:06:16.333Z,10.60
2018-10-07T17:08:45.628Z,9.40
2018-10-07T17:11:14.565Z,10.40
2018-10-07T17:13:43.522Z,11.80
2018-10-07T17:16:12.291Z,10.33
2018-10-07T17:18:42.079Z,11.00
2018-10-07T17:21:11.798Z,10.50
2018-10-07T17:23:40.849Z,12.47
2018-10-07T17:26:10.110Z,13.70
2018-10-07T17:28:39.525Z,11.63
2018-10-07T17:31:11.384Z,11.33
2018-10-07T17:33:40.436Z,12.13
2018-10-07T17:36:09.232Z,13.60
2018-10-07T17:38:38.116Z,11.63
2018-10-07T17:41:06.966Z,10.57
2018-10-07T17:43:35.725Z,12.30
2018-10-07T17:46:04.800Z,10.60
2018-10-07T17:48:33.984Z,11.43
2018-10-07T17:51:03.029Z,13.37
2018-10-07T17:53:31.818Z,11.20
2018-10-07T17:56:00.874Z,10.57
2018-10-07T17:58:29.865Z,12.40
2018-10-07T18:00:58.724Z,18.27
2018-10-07T18:03:28.099Z,17.27
2018-10-07T18:05:57.810Z,11.63
2018-10-07T18:08:28.157Z,12.53
2018-10-07T18:10:58.213Z,13.07
2018-10-07T18:13:27.826Z,13.60
2018-10-07T18:15:57.489Z,14.73
2018-10-07T18:18:27.219Z,10.80
2018-10-07T18:20:56.340Z,11.83
2018-10-07T18:23:26.193Z,9.77
2018-10-07T18:25:55.733Z,12.30
2018-10-07T18:28:25.738Z,13.33
2018-10-07T18:30:54.999Z,12.97
2018-10-07T18:33:25.359Z,11.07
2018-10-07T18:35:55.474Z,14.60
2018-10-07T18:38:25.079Z,12.37
2018-10-07T18:40:56.199Z,16.50
2018-10-07T18:43:25.250Z,11.77
2018-10-07T18:45:55.464Z,12.37
2018-10-07T18:48:24.317Z,12.40
2018-10-07T18:50:54.549Z,12.60
2018-10-07T18:53:24.121Z,11.30
2018-10-07T18:55:53.790Z,13.83
2018-10-07T18:58:22.579Z,10.43
2018-10-07T19:00:51.522Z,10.13
2018-10-07T19:03:20.298Z,16.20
2018-10-07T19:05:49.352Z,13.53
2018-10-07T19:08:18.109Z,11.77
2018-10-07T19:10:46.973Z,12.17
2018-10-07T19:13:16.124Z,11.00
2018-10-07T19:15:45.072Z,12.53
2018-10-07T19:18:13.874Z,13.60
2018-10-07T19:20:42.701Z,13.93
2018-10-07T19:23:12.101Z,11.53
2018-10-07T19:25:40.874Z,12.00
2018-10-07T19:28:09.994Z,9.97
2018-10-07T19:30:38.816Z,10.80
2018-10-07T19:33:07.833Z,10.70
2018-10-07T19:35:43.857Z,14.23
2018-10-07T19:38:12.678Z,14.93
2018-10-07T19:40:41.472Z,10.57
2018-10-07T19:43:10.920Z,14.40
2018-10-07T19:45:41.009Z,11.50
2018-10-07T19:48:10.541Z,14.00
2018-10-07T19:50:40.143Z,13.43
2018-10-07T19:53:09.997Z,11.30
2018-10-07T19:55:40.929Z,12.47
2018-10-07T19:58:10.614Z,11.73
2018-10-07T20:00:41.492Z,18.90
2018-10-07T20:03:11.633Z,11.13
2018-10-07T20:05:40.668Z,16.83
2018-10-07T20:08:10.204Z,13.67
2018-10-07T20:10:42.672Z,13.03
2018-10-07T20:13:12.503Z,13.40
2018-10-07T20:15:41.710Z,14.00
2018-10-07T20:18:12.086Z,17.87
2018-10-07T20:20:41.998Z,15.17
2018-10-07T20:23:11.843Z,17.00
2018-10-07T20:25:42.465Z,17.63
2018-10-07T20:28:11.305Z,19.10
2018-10-07T20:30:40.373Z,15.97
2018-10-07T20:33:09.151Z,13.13
2018-10-07T20:35:37.906Z,13.67
2018-10-07T20:38:07.546Z,15.60
2018-10-07T20:40:36.461Z,16.53
2018-10-07T20:43:05.525Z,15.10
2018-10-07T20:45:34.728Z,11.20
2018-10-07T20:48:03.636Z,14.53
2018-10-07T20:50:34.093Z,13.40
2018-10-07T20:53:02.981Z,14.17
2018-10-07T20:55:32.523Z,11.53
2018-10-07T20:58:02.226Z,15.53
2018-10-07T21:00:31.345Z,14.50
2018-10-07T21:03:00.500Z,13.07
2018-10-07T21:05:29.332Z,12.17
2018-10-07T21:07:58.150Z,13.40
2018-10-07T21:10:26.864Z,10.37
2018-10-07T21:12:56.209Z,15.00
2018-10-07T21:15:25.623Z,13.60
2018-10-07T21:17:55.162Z,15.30
2018-10-07T21:20:25.169Z,12.50
2018-10-07T21:22:54.348Z,12.30
2018-10-07T21:25:23.527Z,13.63
2018-10-07T21:27:54.225Z,11.70
2018-10-07T21:30:23.883Z,11.80
2018-10-07T21:32:54.501Z,11.20
2018-10-07T21:35:24.231Z,11.17
2018-10-07T21:37:54.349Z,11.97
2018-10-07T21:40:24.679Z,10.17
2018-10-07T21:42:54.034Z,13.63
2018-10-07T21:45:24.068Z,16.60
2018-10-07T21:47:55.007Z,16.00
2018-10-07T21:50:24.481Z,13.07
2018-10-07T21:52:54.032Z,15.40
2018-10-07T21:55:23.052Z,12.40
2018-10-07T21:57:52.367Z,12.90
2018-10-07T22:00:22.521Z,11.90
2018-10-07T22:02:53.220Z,11.17
2018-10-07T22:05:23.453Z,13.20
2018-10-07T22:07:52.658Z,12.30
2018-10-07T22:10:21.664Z,11.30
2018-10-07T22:12:52.242Z,11.43
2018-10-07T22:15:22.261Z,12.80
2018-10-07T22:17:51.310Z,18.87
2018-10-07T22:20:21.406Z,19.53
2018-10-07T22:22:50.358Z,14.63
2018-10-07T22:25:21.102Z,26.17
2018-10-07T22:27:51.242Z,24.30
2018-10-07T22:30:21.788Z,34.10
2018-10-07T22:32:51.423Z,19.33
2018-10-07T22:35:20.902Z,24.17
2018-10-07T22:37:50.931Z,27.83
2018-10-07T22:40:19.961Z,20.13
2018-10-07T22:42:49.236Z,27.23
2018-10-07T22:45:19.244Z,24.60
2018-10-07T22:47:49.516Z,24.10
2018-10-07T22:50:18.985Z,21.77
2018-10-07T22:52:48.007Z,18.40
2018-10-07T22:55:16.902Z,16.47
2018-10-07T22:57:46.085Z,19.10
2018-10-07T23:00:15.100Z,17.10
2018-10-07T23:02:44.827Z,22.13
2018-10-07T23:05:13.720Z,14.90
2018-10-07T23:07:42.940Z,19.17
2018-10-07T23:10:12.648Z,17.03
2018-10-07T23:12:43.202Z,15.10
2018-10-07T23:15:13.197Z,16.70
2018-10-07T23:17:42.821Z,19.07
2018-10-07T23:20:12.533Z,14.23
2018-10-07T23:22:42.282Z,20.33
2018-10-07T23:25:11.877Z,13.83
2018-10-07T23:27:42.447Z,21.43
2018-10-07T23:30:12.454Z,21.13
2018-10-07T23:32:42.216Z,15.57
2018-10-07T23:35:11.928Z,15.80
2018-10-07T23:37:41.992Z,17.00
2018-10-07T23:40:11.780Z,14.50
2018-10-07T23:42:41.725Z,16.67
2018-10-07T23:45:11.953Z,14.60
2018-10-07T23:47:42.166Z,15.03
2018-10-07T23:50:11.415Z,16.60
2018-10-07T23:52:40.442Z,16.43
2018-10-07T23:55:09.810Z,16.40
2018-10-07T23:57:39.305Z,18.10
